Lynnwood, Washington
Current Conditions -  °F | °C
As of 4:53 PM on Friday 24 Oct 2014 (Local Time) from KPAE Reporting Station
Clear Clear  
Wind Chill: 53°   Ceiling: Unl
Heat Index: 53°   Visibility: 10mi
Dew Point: 46°   Wind: 7mph
Humidity: 77%   Direction: 350°N
Pressure: 29.91"   Gusts: NA
Location:  47.83°N, 122.29°W
Report Text: KPAE 242353Z 35006KT 10SM CLR 12/08 A2991 RMK AO2 SLP129 T01170078 10144 20117 58024
Loading
Personal Weather Stations






























Interactive Weather Map New forecast layout! Learn more

10-Day Weather Forecast

Advertisements
Track Severe Weather on mobile